createdAt,value
2023-05-08T00:00:42.099Z,6.73
2023-05-08T00:03:45.088Z,6.74
2023-05-08T00:06:48.410Z,6.68
2023-05-08T00:09:51.209Z,6.59
2023-05-08T00:12:53.804Z,6.59
2023-05-08T00:15:56.282Z,6.61
2023-05-08T00:18:59.694Z,6.74
2023-05-08T00:22:02.196Z,6.60
2023-05-08T00:25:05.824Z,6.72
2023-05-08T00:28:08.283Z,6.92
2023-05-08T00:31:11.876Z,6.85
2023-05-08T00:34:14.299Z,6.68
2023-05-08T00:37:17.262Z,6.78
2023-05-08T00:40:19.826Z,6.58
2023-05-08T00:43:25.872Z,6.45
2023-05-08T00:46:28.519Z,6.50
2023-05-08T00:49:31.396Z,6.57
2023-05-08T00:52:34.280Z,6.33
2023-05-08T00:55:37.833Z,6.46
2023-05-08T00:58:41.967Z,6.31
2023-05-08T01:01:45.096Z,6.47
2023-05-08T01:04:48.517Z,6.41
2023-05-08T01:07:51.254Z,6.22
2023-05-08T01:11:28.892Z,6.21
2023-05-08T01:14:52.370Z,6.41
2023-05-08T01:18:17.299Z,6.20
2023-05-08T01:21:43.341Z,6.32
2023-05-08T01:24:48.893Z,6.42
2023-05-08T01:28:32.374Z,6.40
2023-05-08T01:32:14.183Z,6.45
2023-05-08T01:35:41.570Z,6.48
2023-05-08T01:38:56.107Z,6.43
2023-05-08T01:42:28.984Z,6.35
2023-05-08T01:45:35.959Z,6.13
2023-05-08T01:49:12.618Z,6.17
2023-05-08T01:52:21.400Z,6.03
2023-05-08T01:55:34.459Z,6.12
2023-05-08T01:58:39.241Z,5.96
2023-05-08T02:01:44.976Z,6.02
2023-05-08T02:04:49.496Z,6.03
2023-05-08T02:07:52.864Z,5.89
2023-05-08T02:10:56.994Z,5.81
2023-05-08T02:14:01.740Z,5.86
2023-05-08T02:17:06.407Z,5.95
2023-05-08T02:20:14.870Z,5.95
2023-05-08T02:23:19.484Z,5.80
2023-05-08T02:26:23.404Z,5.91
2023-05-08T02:29:26.394Z,5.90
2023-05-08T02:32:30.693Z,5.92
2023-05-08T02:35:34.043Z,5.85
2023-05-08T02:38:41.401Z,5.84
2023-05-08T02:41:44.595Z,5.83
2023-05-08T02:44:47.246Z,5.61
2023-05-08T02:48:12.230Z,5.83
2023-05-08T02:51:23.824Z,5.81
2023-05-08T02:54:46.189Z,5.71
2023-05-08T02:58:24.669Z,5.87
2023-05-08T03:01:36.280Z,5.74
2023-05-08T03:04:51.532Z,5.74
2023-05-08T03:07:57.483Z,5.75
2023-05-08T03:11:07.875Z,5.52
2023-05-08T03:14:12.700Z,5.53
2023-05-08T03:17:18.994Z,5.58
2023-05-08T03:20:24.937Z,5.50
2023-05-08T03:23:30.605Z,5.33
2023-05-08T03:26:33.287Z,5.61
2023-05-08T03:29:38.452Z,5.72
2023-05-08T03:32:42.513Z,5.65
2023-05-08T03:35:46.393Z,5.76
2023-05-08T03:38:49.223Z,5.78
2023-05-08T03:41:52.124Z,5.60
2023-05-08T03:44:54.887Z,5.80
2023-05-08T03:48:00.240Z,5.76
2023-05-08T03:51:04.389Z,5.92
2023-05-08T03:54:08.582Z,5.96
2023-05-08T03:57:11.674Z,5.86
2023-05-08T04:00:54.010Z,6.12
2023-05-08T04:04:18.907Z,6.19
2023-05-08T04:07:31.194Z,6.18
2023-05-08T04:10:46.417Z,6.22
2023-05-08T04:13:54.177Z,6.12
2023-05-08T04:17:02.990Z,6.20
2023-05-08T04:20:08.976Z,6.42
2023-05-08T04:23:17.172Z,6.49
2023-05-08T04:26:20.250Z,6.45
2023-05-08T04:29:24.848Z,6.46
2023-05-08T04:32:28.964Z,6.74
2023-05-08T04:35:33.938Z,6.59
2023-05-08T04:38:37.817Z,6.61
2023-05-08T04:41:41.273Z,6.90
2023-05-08T04:44:43.778Z,6.80
2023-05-08T04:47:46.443Z,7.03
2023-05-08T04:50:48.877Z,7.12
2023-05-08T04:53:51.448Z,6.99
2023-05-08T04:56:54.233Z,7.28
2023-05-08T04:59:56.682Z,7.37
2023-05-08T05:03:00.070Z,7.47
2023-05-08T05:06:02.663Z,7.35
2023-05-08T05:09:05.431Z,7.47
2023-05-08T05:12:08.704Z,7.68
2023-05-08T05:15:11.993Z,7.66
2023-05-08T05:18:15.880Z,7.77
2023-05-08T05:21:18.983Z,7.72
2023-05-08T05:24:22.229Z,7.98
2023-05-08T05:27:24.791Z,8.03
2023-05-08T05:30:28.034Z,8.25
2023-05-08T05:33:30.562Z,8.23
2023-05-08T05:36:33.095Z,8.47
2023-05-08T05:39:37.789Z,8.67
2023-05-08T05:42:41.217Z,8.63
2023-05-08T05:45:43.837Z,9.14
2023-05-08T05:48:46.284Z,9.72
2023-05-08T05:51:49.228Z,10.78
2023-05-08T05:54:52.578Z,11.68
2023-05-08T05:57:55.831Z,11.83
2023-05-08T06:01:01.082Z,13.05
2023-05-08T06:04:04.478Z,13.44
2023-05-08T06:07:07.041Z,12.75
2023-05-08T06:10:09.869Z,13.60
2023-05-08T06:13:13.008Z,14.70
2023-05-08T06:16:16.175Z,15.27
2023-05-08T06:19:18.686Z,13.91
2023-05-08T06:22:24.422Z,14.55
2023-05-08T06:25:28.220Z,14.94
2023-05-08T06:28:30.946Z,15.14
2023-05-08T06:31:33.561Z,15.45
2023-05-08T06:34:36.081Z,15.92
2023-05-08T06:37:38.582Z,16.30
2023-05-08T06:40:44.858Z,16.70
2023-05-08T06:43:47.371Z,16.73
2023-05-08T06:46:49.912Z,16.60
2023-05-08T06:49:54.025Z,17.13
2023-05-08T06:52:56.526Z,16.76
2023-05-08T06:55:59.280Z,17.30
2023-05-08T06:59:08.285Z,17.29
2023-05-08T07:02:12.519Z,17.75
2023-05-08T07:05:15.614Z,16.91
2023-05-08T07:08:18.229Z,17.48
2023-05-08T07:11:20.785Z,17.67
2023-05-08T07:14:23.253Z,17.98
2023-05-08T07:17:25.740Z,18.21
2023-05-08T07:20:28.416Z,18.14
2023-05-08T07:23:31.657Z,18.57
2023-05-08T07:26:34.110Z,18.03
2023-05-08T07:29:36.668Z,18.23
2023-05-08T07:32:39.506Z,18.77
2023-05-08T07:35:42.306Z,18.26
2023-05-08T07:38:45.668Z,18.79
2023-05-08T07:41:49.921Z,18.23
2023-05-08T07:44:55.186Z,18.39
2023-05-08T07:47:59.024Z,18.81
2023-05-08T07:51:01.620Z,19.43
2023-05-08T07:54:04.120Z,18.93
2023-05-08T07:57:06.635Z,19.58
2023-05-08T08:00:14.668Z,19.26
2023-05-08T08:03:17.460Z,19.27
2023-05-08T08:06:20.597Z,19.53
2023-05-08T08:09:23.061Z,19.89
2023-05-08T08:12:25.796Z,20.08
2023-05-08T08:15:28.960Z,20.46
2023-05-08T08:18:35.689Z,20.49
2023-05-08T08:21:47.177Z,19.79
2023-05-08T08:24:49.684Z,20.09
2023-05-08T08:27:52.129Z,19.95
2023-05-08T08:30:54.627Z,20.47
2023-05-08T08:33:57.579Z,20.48
2023-05-08T08:37:00.060Z,21.12
2023-05-08T08:40:02.576Z,20.84
2023-05-08T08:43:05.857Z,21.17
2023-05-08T08:46:14.626Z,21.51
2023-05-08T08:49:31.874Z,21.99
2023-05-08T08:52:49.340Z,21.95
2023-05-08T08:55:55.759Z,21.73
2023-05-08T08:59:00.289Z,22.78
2023-05-08T09:02:11.723Z,21.84
2023-05-08T09:05:14.629Z,21.88
2023-05-08T09:08:18.797Z,21.79
2023-05-08T09:11:21.543Z,22.50
2023-05-08T09:14:26.737Z,22.15
2023-05-08T09:17:29.490Z,22.39
2023-05-08T09:20:32.080Z,21.77
2023-05-08T09:23:37.381Z,21.10
2023-05-08T09:26:41.506Z,21.35
2023-05-08T09:29:59.579Z,21.60
2023-05-08T09:33:02.949Z,21.91
2023-05-08T09:36:05.929Z,21.51
2023-05-08T09:39:12.706Z,21.67
2023-05-08T09:42:15.553Z,21.85
2023-05-08T09:45:32.315Z,22.03
2023-05-08T09:48:38.516Z,21.60
2023-05-08T09:51:53.116Z,22.05
2023-05-08T09:55:03.395Z,22.37
2023-05-08T09:58:05.782Z,21.83
2023-05-08T10:01:27.338Z,21.93
2023-05-08T10:04:37.256Z,22.68
2023-05-08T10:07:39.672Z,22.39
2023-05-08T10:10:42.789Z,22.24
2023-05-08T10:13:46.451Z,22.12
2023-05-08T10:16:52.784Z,22.50
2023-05-08T10:20:00.372Z,22.39
2023-05-08T10:23:04.201Z,23.06
2023-05-08T10:26:12.783Z,22.93
2023-05-08T10:29:25.169Z,22.86
2023-05-08T10:32:31.572Z,23.14
2023-05-08T10:35:34.778Z,22.76
2023-05-08T10:38:38.193Z,22.83
2023-05-08T10:41:41.667Z,22.42
2023-05-08T10:44:44.657Z,22.57
2023-05-08T10:48:34.450Z,23.21
2023-05-08T10:52:21.511Z,22.69
2023-05-08T10:55:31.831Z,21.88
2023-05-08T10:58:37.271Z,22.04
2023-05-08T11:01:39.905Z,22.13
2023-05-08T11:04:43.927Z,22.50
2023-05-08T11:07:56.869Z,22.55
2023-05-08T11:11:02.145Z,21.77
2023-05-08T11:14:07.467Z,21.90
2023-05-08T11:17:10.582Z,22.21
2023-05-08T11:20:13.312Z,21.74
2023-05-08T11:23:29.639Z,21.15
2023-05-08T11:26:41.131Z,21.43
2023-05-08T11:29:45.105Z,21.27
2023-05-08T11:33:18.981Z,21.28
2023-05-08T11:36:23.005Z,21.57
2023-05-08T11:40:22.687Z,21.39
2023-05-08T11:43:34.099Z,21.81
2023-05-08T11:47:03.626Z,21.66
2023-05-08T11:50:07.680Z,21.83
2023-05-08T11:53:10.133Z,21.46
2023-05-08T11:56:12.796Z,20.99
2023-05-08T11:59:15.784Z,21.27
2023-05-08T12:02:18.558Z,21.46
2023-05-08T12:05:27.511Z,21.00
2023-05-08T12:08:30.079Z,21.63
2023-05-08T12:11:32.824Z,20.28
2023-05-08T12:14:35.237Z,20.77
2023-05-08T12:17:38.301Z,20.29
2023-05-08T12:20:40.965Z,20.80
2023-05-08T12:23:43.968Z,20.75
2023-05-08T12:26:46.448Z,20.71
2023-05-08T12:29:48.837Z,20.21
2023-05-08T12:32:51.411Z,20.12
2023-05-08T12:35:54.668Z,20.41
2023-05-08T12:39:16.316Z,20.56
2023-05-08T12:42:18.663Z,20.08
2023-05-08T12:45:24.213Z,20.79
2023-05-08T12:48:26.867Z,20.36
2023-05-08T12:51:31.086Z,19.63
2023-05-08T12:54:34.788Z,19.55
2023-05-08T12:57:37.182Z,19.25
2023-05-08T13:00:44.805Z,19.84
2023-05-08T13:04:01.779Z,20.04
2023-05-08T13:07:05.490Z,19.98
2023-05-08T13:10:08.932Z,19.29
2023-05-08T13:13:11.570Z,19.10
2023-05-08T13:16:14.037Z,19.75
2023-05-08T13:19:16.767Z,19.55
2023-05-08T13:22:22.992Z,19.17
2023-05-08T13:25:25.408Z,19.85
2023-05-08T13:28:27.827Z,19.51
2023-05-08T13:31:30.745Z,19.88
2023-05-08T13:34:33.468Z,20.02
2023-05-08T13:37:36.474Z,19.84
2023-05-08T13:40:39.116Z,19.76
2023-05-08T13:43:42.479Z,20.29
2023-05-08T13:46:44.850Z,19.53
2023-05-08T13:49:48.021Z,20.00
2023-05-08T13:52:52.316Z,19.82
2023-05-08T13:55:57.333Z,19.86
2023-05-08T13:59:00.206Z,19.60
2023-05-08T14:02:02.983Z,19.62
2023-05-08T14:05:08.178Z,19.16
2023-05-08T14:08:11.368Z,18.80
2023-05-08T14:11:13.824Z,18.19
2023-05-08T14:14:16.523Z,17.45
2023-05-08T14:17:18.983Z,17.41
2023-05-08T14:20:21.479Z,17.02
2023-05-08T14:23:24.005Z,16.75
2023-05-08T14:26:26.739Z,16.78
2023-05-08T14:29:29.802Z,16.46
2023-05-08T14:32:32.289Z,16.80
2023-05-08T14:35:34.880Z,16.94
2023-05-08T14:38:37.373Z,16.85
2023-05-08T14:41:40.478Z,16.98
2023-05-08T14:44:43.038Z,16.58
2023-05-08T14:47:45.552Z,16.54
2023-05-08T14:50:48.079Z,16.73
2023-05-08T14:53:50.977Z,16.52
2023-05-08T14:56:53.828Z,16.29
2023-05-08T14:59:56.853Z,16.52
2023-05-08T15:02:59.378Z,16.50
2023-05-08T15:06:02.215Z,16.36
2023-05-08T15:09:04.537Z,15.65
2023-05-08T15:12:07.119Z,15.65
2023-05-08T15:15:09.892Z,15.32
2023-05-08T15:18:12.231Z,15.35
2023-05-08T15:21:14.661Z,15.00
2023-05-08T15:24:17.223Z,15.34
2023-05-08T15:27:19.636Z,14.85
2023-05-08T15:30:22.292Z,14.59
2023-05-08T15:33:24.899Z,14.76
2023-05-08T15:36:28.510Z,14.84
2023-05-08T15:39:30.972Z,14.87
2023-05-08T15:42:33.489Z,14.78
2023-05-08T15:45:35.915Z,14.37
2023-05-08T15:48:38.518Z,14.33
2023-05-08T15:51:40.986Z,14.02
2023-05-08T15:54:43.451Z,13.86
2023-05-08T15:57:45.959Z,13.75
2023-05-08T16:00:48.402Z,13.77
2023-05-08T16:03:50.843Z,13.87
2023-05-08T16:06:53.314Z,13.64
2023-05-08T16:09:55.746Z,13.56
2023-05-08T16:12:58.239Z,13.53
2023-05-08T16:16:05.241Z,13.55
2023-05-08T16:19:08.199Z,13.41
2023-05-08T16:22:10.674Z,13.21
2023-05-08T16:25:13.415Z,13.40
2023-05-08T16:28:16.195Z,13.33
2023-05-08T16:31:18.637Z,13.17
2023-05-08T16:34:21.558Z,12.99
2023-05-08T16:37:23.979Z,12.82
2023-05-08T16:40:26.332Z,12.80
2023-05-08T16:43:28.865Z,12.69
2023-05-08T16:46:31.392Z,12.43
2023-05-08T16:49:33.953Z,12.73
2023-05-08T16:52:36.441Z,12.50
2023-05-08T16:55:38.907Z,12.13
2023-05-08T16:58:43.250Z,12.20
2023-05-08T17:01:45.751Z,11.98
2023-05-08T17:04:49.379Z,12.03
2023-05-08T17:07:51.902Z,11.98
2023-05-08T17:10:54.308Z,11.79
2023-05-08T17:13:57.060Z,11.66
2023-05-08T17:16:59.773Z,11.74
2023-05-08T17:20:02.267Z,11.45
2023-05-08T17:23:04.747Z,11.40
2023-05-08T17:26:07.446Z,11.34
2023-05-08T17:29:09.852Z,11.44
2023-05-08T17:32:12.635Z,11.04
2023-05-08T17:35:15.160Z,10.93
2023-05-08T17:38:17.700Z,10.94
2023-05-08T17:41:20.666Z,10.89
2023-05-08T17:44:23.464Z,10.80
2023-05-08T17:47:26.075Z,10.55
2023-05-08T17:50:28.610Z,10.65
2023-05-08T17:53:32.227Z,10.32
2023-05-08T17:56:34.666Z,10.36
2023-05-08T17:59:36.999Z,9.92
2023-05-08T18:02:40.048Z,10.07
2023-05-08T18:05:42.646Z,10.03
2023-05-08T18:08:46.287Z,10.16
2023-05-08T18:11:48.703Z,9.87
2023-05-08T18:14:51.216Z,9.96
2023-05-08T18:17:53.778Z,9.87
2023-05-08T18:20:56.386Z,9.93
2023-05-08T18:23:58.911Z,9.77
2023-05-08T18:27:01.364Z,9.63
2023-05-08T18:30:04.384Z,9.59
2023-05-08T18:33:07.021Z,9.86
2023-05-08T18:36:10.296Z,9.63
2023-05-08T18:39:12.755Z,9.47
2023-05-08T18:42:15.415Z,9.59
2023-05-08T18:45:18.022Z,9.25
2023-05-08T18:48:20.765Z,9.29
2023-05-08T18:51:23.711Z,9.42
2023-05-08T18:54:27.043Z,9.32
2023-05-08T18:57:29.444Z,9.42
2023-05-08T19:00:33.228Z,9.19
2023-05-08T19:03:35.938Z,9.11
2023-05-08T19:06:38.450Z,9.19
2023-05-08T19:09:40.978Z,9.05
2023-05-08T19:12:44.333Z,8.97
2023-05-08T19:15:47.055Z,9.04
2023-05-08T19:18:50.773Z,9.03
2023-05-08T19:21:53.422Z,8.98
2023-05-08T19:24:56.167Z,8.79
2023-05-08T19:27:58.872Z,8.93
2023-05-08T19:31:01.669Z,8.80
2023-05-08T19:34:04.174Z,8.84
2023-05-08T19:37:06.569Z,8.91
2023-05-08T19:40:09.515Z,8.74
2023-05-08T19:43:12.176Z,8.79
2023-05-08T19:46:14.770Z,8.71
2023-05-08T19:49:17.671Z,8.59
2023-05-08T19:52:20.335Z,8.48
2023-05-08T19:55:22.873Z,8.53
2023-05-08T19:58:25.476Z,8.64
2023-05-08T20:01:27.980Z,8.46
2023-05-08T20:04:30.693Z,8.33
2023-05-08T20:07:33.778Z,8.27
2023-05-08T20:10:36.289Z,8.17
2023-05-08T20:13:39.287Z,8.13
2023-05-08T20:16:42.096Z,8.13
2023-05-08T20:19:44.727Z,8.39
2023-05-08T20:22:47.326Z,8.36
2023-05-08T20:25:49.711Z,8.26
2023-05-08T20:28:52.166Z,8.24
2023-05-08T20:31:54.678Z,8.27
2023-05-08T20:34:57.153Z,8.14
2023-05-08T20:37:59.640Z,8.11
2023-05-08T20:41:02.252Z,8.10
2023-05-08T20:44:04.706Z,8.12
2023-05-08T20:47:07.087Z,8.07
2023-05-08T20:50:09.762Z,8.03
2023-05-08T20:53:12.121Z,7.77
2023-05-08T20:56:18.675Z,8.01
2023-05-08T20:59:23.227Z,7.98
2023-05-08T21:02:25.831Z,7.81
2023-05-08T21:05:28.278Z,7.80
2023-05-08T21:08:30.683Z,7.84
2023-05-08T21:11:33.315Z,7.65
2023-05-08T21:14:36.641Z,7.54
2023-05-08T21:17:39.027Z,7.56
2023-05-08T21:20:45.144Z,7.45
2023-05-08T21:23:47.513Z,7.59
2023-05-08T21:26:49.908Z,7.26
2023-05-08T21:29:52.441Z,7.48
2023-05-08T21:32:54.940Z,7.54
2023-05-08T21:35:57.398Z,7.38
2023-05-08T21:38:59.816Z,7.47
2023-05-08T21:42:03.227Z,7.03
2023-05-08T21:45:06.076Z,7.27
2023-05-08T21:48:08.606Z,7.16
2023-05-08T21:51:11.021Z,7.13
2023-05-08T21:54:13.439Z,7.00
2023-05-08T21:57:15.983Z,7.01
2023-05-08T22:00:19.080Z,6.90
2023-05-08T22:03:24.086Z,7.37
2023-05-08T22:06:26.627Z,7.35
2023-05-08T22:09:29.001Z,7.25
2023-05-08T22:12:31.455Z,7.14
2023-05-08T22:15:34.121Z,7.20
2023-05-08T22:18:36.879Z,7.18
2023-05-08T22:21:40.816Z,6.98
2023-05-08T22:24:43.244Z,7.01
2023-05-08T22:27:46.071Z,7.08
2023-05-08T22:30:48.489Z,6.62
2023-05-08T22:33:50.894Z,6.88
2023-05-08T22:36:53.226Z,6.92
2023-05-08T22:39:55.657Z,7.10
2023-05-08T22:42:59.131Z,7.04
2023-05-08T22:46:01.942Z,6.79
2023-05-08T22:49:04.555Z,6.81
2023-05-08T22:52:08.116Z,6.77
2023-05-08T22:55:10.832Z,6.64
2023-05-08T22:58:13.510Z,6.70
2023-05-08T23:01:17.412Z,6.65
2023-05-08T23:04:20.161Z,6.58
2023-05-08T23:07:22.573Z,6.53
2023-05-08T23:10:25.037Z,6.85
2023-05-08T23:13:27.551Z,6.68
2023-05-08T23:16:30.216Z,6.80
2023-05-08T23:19:32.600Z,6.69
2023-05-08T23:22:35.085Z,6.81
2023-05-08T23:25:37.452Z,6.89
2023-05-08T23:28:39.880Z,6.93
2023-05-08T23:31:42.342Z,6.75
2023-05-08T23:34:44.934Z,6.53
2023-05-08T23:37:47.396Z,6.48
2023-05-08T23:40:50.261Z,6.68
2023-05-08T23:43:52.678Z,6.73
2023-05-08T23:46:55.058Z,6.65
2023-05-08T23:49:57.600Z,6.39
2023-05-08T23:53:00.065Z,6.59
2023-05-08T23:56:02.500Z,6.41
2023-05-08T23:59:04.956Z,6.64
